Time;durP1;ratioP1;P1;durP2;ratioP2;P2;SDS_P1;SDS_P2;PMS_P1;PMS_P2;Temp;Humidity;BMP_temperature;BMP_pressure;BME280_temperature;BME280_humidity;BME280_pressure;Samples;Min_cycle;Max_cycle;Signal;HPM_P1;HPM_P2
2023/10/21 00:00:51;;;;;;;16.67;10.00;;;;;;;;;;5053700;28;20479;-82
2023/10/21 00:03:17;;;;;;;12.80;9.47;;;;;;;;;;5053845;28;20476;-83
2023/10/21 00:05:44;;;;;;;14.53;9.90;;;;;;;;;;5052781;28;20464;-83
2023/10/21 00:08:10;;;;;;;15.03;10.33;;;;;;;;;;5053054;28;20444;-82
2023/10/21 00:10:37;;;;;;;12.30;8.47;;;;;;;;;;5053568;28;20984;-83
2023/10/21 00:13:04;;;;;;;14.00;10.23;;;;;;;;;;5054345;28;20440;-83
2023/10/21 00:15:31;;;;;;;15.00;9.33;;;;;;;;;;5054100;28;20460;-81
2023/10/21 00:17:57;;;;;;;16.60;9.67;;;;;;;;;;5054203;28;20440;-83
2023/10/21 00:20:24;;;;;;;14.47;10.33;;;;;;;;;;5053432;28;20436;-83
2023/10/21 00:22:50;;;;;;;19.37;11.03;;;;;;;;;;5054558;28;20491;-81
2023/10/21 00:25:17;;;;;;;13.37;11.00;;;;;;;;;;5052351;28;20467;-83
2023/10/21 00:27:43;;;;;;;13.13;10.47;;;;;;;;;;5052664;28;20535;-83
2023/10/21 00:30:13;;;;;;;16.47;12.50;;;;;;;;;;5053424;28;20969;-83
2023/10/21 00:32:39;;;;;;;18.70;11.70;;;;;;;;;;5054759;28;20440;-83
2023/10/21 00:35:06;;;;;;;18.07;11.40;;;;;;;;;;5054088;28;20464;-83
2023/10/21 00:37:32;;;;;;;20.47;12.40;;;;;;;;;;5052682;28;21005;-82
2023/10/21 00:39:58;;;;;;;16.80;11.27;;;;;;;;;;5054160;28;20436;-82
2023/10/21 00:42:25;;;;;;;19.43;11.63;;;;;;;;;;5055215;28;20483;-84
2023/10/21 00:44:51;;;;;;;17.77;12.70;;;;;;;;;;5056659;28;20456;-83
2023/10/21 00:47:19;;;;;;;19.30;11.87;;;;;;;;;;5056932;28;21035;-83
2023/10/21 00:49:46;;;;;;;20.73;12.90;;;;;;;;;;5057727;28;20444;-83
2023/10/21 00:52:13;;;;;;;21.57;12.93;;;;;;;;;;5057288;28;20471;-83
2023/10/21 00:54:40;;;;;;;23.13;12.90;;;;;;;;;;5040207;28;20475;-83
2023/10/21 00:57:06;;;;;;;20.90;13.23;;;;;;;;;;5055817;28;20471;-83
2023/10/21 00:59:32;;;;;;;25.07;14.27;;;;;;;;;;5057630;28;20819;-83
2023/10/21 01:01:59;;;;;;;21.33;13.87;;;;;;;;;;5056854;28;20471;-83
2023/10/21 01:04:27;;;;;;;22.20;13.87;;;;;;;;;;5057276;28;20483;-83
2023/10/21 01:06:54;;;;;;;21.67;14.30;;;;;;;;;;5057015;28;20476;-81
2023/10/21 01:09:22;;;;;;;21.63;14.73;;;;;;;;;;5057714;28;20436;-82
2023/10/21 01:11:48;;;;;;;24.93;13.80;;;;;;;;;;5057150;28;20989;-81
2023/10/21 01:14:14;;;;;;;24.87;16.30;;;;;;;;;;5056594;28;20842;-82
2023/10/21 01:16:41;;;;;;;29.37;15.63;;;;;;;;;;5055807;28;20477;-81
2023/10/21 01:19:07;;;;;;;26.40;15.27;;;;;;;;;;5057133;28;20436;-84
2023/10/21 01:21:37;;;;;;;24.80;14.93;;;;;;;;;;5055718;28;20912;-83
2023/10/21 01:24:06;;;;;;;30.57;16.40;;;;;;;;;;5055808;28;20479;-82
2023/10/21 01:26:33;;;;;;;27.03;16.97;;;;;;;;;;5056884;28;20547;-82
2023/10/21 01:28:59;;;;;;;29.23;14.90;;;;;;;;;;5057300;28;20462;-83
2023/10/21 01:31:26;;;;;;;31.97;17.60;;;;;;;;;;5038815;28;20542;-83
2023/10/21 01:33:52;;;;;;;30.03;16.93;;;;;;;;;;5056799;28;20467;-83
2023/10/21 01:36:18;;;;;;;32.67;17.53;;;;;;;;;;5056638;28;20479;-83
2023/10/21 01:38:45;;;;;;;30.63;16.40;;;;;;;;;;5056681;28;20447;-83
2023/10/21 01:41:13;;;;;;;28.97;16.50;;;;;;;;;;5056209;28;20511;-83
2023/10/21 01:43:40;;;;;;;35.83;17.13;;;;;;;;;;5055327;28;20487;-81
2023/10/21 01:46:06;;;;;;;37.57;20.07;;;;;;;;;;5056161;28;20530;-83
2023/10/21 01:48:33;;;;;;;34.20;18.67;;;;;;;;;;5055104;28;20953;-83
2023/10/21 01:51:00;;;;;;;35.37;17.63;;;;;;;;;;5056268;28;21005;-81
2023/10/21 01:53:26;;;;;;;38.43;16.90;;;;;;;;;;5054474;28;20440;-83
2023/10/21 01:55:59;;;;;;;40.03;19.47;;;;;;;;;;5055828;28;21092;-83
2023/10/21 01:58:27;;;;;;;39.37;20.00;;;;;;;;;;5056547;28;20428;-82
2023/10/21 02:00:53;;;;;;;34.30;18.63;;;;;;;;;;5056407;28;20467;-83
2023/10/21 02:03:20;;;;;;;47.80;19.07;;;;;;;;;;5055952;28;20483;-83
2023/10/21 02:05:46;;;;;;;38.20;19.70;;;;;;;;;;5054424;28;21020;-83
2023/10/21 02:08:12;;;;;;;48.67;19.50;;;;;;;;;;5056541;28;20444;-82
2023/10/21 02:10:40;;;;;;;42.33;21.37;;;;;;;;;;5054740;28;20460;-83
2023/10/21 02:13:07;;;;;;;39.53;20.87;;;;;;;;;;5056756;28;20490;-83
2023/10/21 02:15:37;;;;;;;43.80;18.80;;;;;;;;;;5055990;28;20466;-83
2023/10/21 02:18:04;;;;;;;39.23;19.00;;;;;;;;;;5055300;28;20440;-83
2023/10/21 02:20:30;;;;;;;40.03;19.43;;;;;;;;;;5055920;28;20543;-83
2023/10/21 02:22:56;;;;;;;39.20;21.60;;;;;;;;;;5054699;28;20549;-84
2023/10/21 02:25:23;;;;;;;49.17;22.80;;;;;;;;;;5055406;28;20456;-83
2023/10/21 02:27:49;;;;;;;43.83;21.13;;;;;;;;;;5054757;28;20494;-83
2023/10/21 02:30:16;;;;;;;45.97;20.67;;;;;;;;;;5055632;28;20510;-83
2023/10/21 02:32:47;;;;;;;57.40;23.00;;;;;;;;;;5055795;28;20527;-83
2023/10/21 02:35:14;;;;;;;44.10;20.80;;;;;;;;;;5055151;28;20547;-83
2023/10/21 02:37:40;;;;;;;45.70;20.00;;;;;;;;;;5055577;28;20447;-83
2023/10/21 02:40:07;;;;;;;46.77;21.00;;;;;;;;;;5055849;28;20432;-83
2023/10/21 02:42:34;;;;;;;41.73;21.07;;;;;;;;;;5054219;28;20471;-83
2023/10/21 02:45:01;;;;;;;44.03;21.20;;;;;;;;;;5055962;28;20503;-83
2023/10/21 02:47:27;;;;;;;47.07;21.93;;;;;;;;;;5053678;28;20478;-83
2023/10/21 02:49:55;;;;;;;42.50;20.73;;;;;;;;;;5055678;28;20440;-83
2023/10/21 02:52:21;;;;;;;44.87;22.53;;;;;;;;;;5054595;28;20472;-82
2023/10/21 02:54:48;;;;;;;47.73;22.00;;;;;;;;;;5055584;28;20452;-83
2023/10/21 02:57:14;;;;;;;48.77;22.20;;;;;;;;;;5055096;28;20475;-83
2023/10/21 02:59:41;;;;;;;48.13;23.30;;;;;;;;;;5056099;28;20432;-83
2023/10/21 03:02:07;;;;;;;47.23;21.27;;;;;;;;;;5054000;28;20483;-83
2023/10/21 03:04:35;;;;;;;42.30;20.07;;;;;;;;;;5055107;28;21000;-83
2023/10/21 03:07:03;;;;;;;44.83;22.10;;;;;;;;;;5054216;28;21050;-83
2023/10/21 03:09:30;;;;;;;44.00;21.90;;;;;;;;;;5055341;28;20501;-83
2023/10/21 03:11:56;;;;;;;45.20;21.53;;;;;;;;;;5054778;28;20464;-83
2023/10/21 03:14:23;;;;;;;49.60;22.73;;;;;;;;;;5055030;28;20456;-83
2023/10/21 03:16:49;;;;;;;56.23;22.43;;;;;;;;;;5053682;28;20467;-84
2023/10/21 03:19:16;;;;;;;50.77;24.10;;;;;;;;;;5054867;28;20447;-83
2023/10/21 03:21:41;;;;;;;50.87;21.53;;;;;;;;;;5052948;28;20460;-83
2023/10/21 03:24:09;;;;;;;52.03;21.20;;;;;;;;;;5055157;28;20483;-83
2023/10/21 03:26:35;;;;;;;50.97;23.47;;;;;;;;;;5052838;28;20772;-84
2023/10/21 03:29:03;;;;;;;50.13;21.63;;;;;;;;;;5053491;28;20455;-83
2023/10/21 03:31:29;;;;;;;58.47;23.30;;;;;;;;;;5054563;28;20551;-83
2023/10/21 03:33:56;;;;;;;44.30;22.97;;;;;;;;;;5054498;28;20460;-83
2023/10/21 03:36:22;;;;;;;50.60;22.13;;;;;;;;;;5054236;28;20479;-83
2023/10/21 03:38:48;;;;;;;47.47;22.33;;;;;;;;;;5054388;28;20450;-83
2023/10/21 03:41:16;;;;;;;65.90;24.27;;;;;;;;;;5052935;28;20906;-83
2023/10/21 03:43:43;;;;;;;71.60;25.27;;;;;;;;;;5053705;28;20487;-83
2023/10/21 03:46:11;;;;;;;56.10;22.90;;;;;;;;;;5054251;28;20463;-83
2023/10/21 03:48:37;;;;;;;56.83;22.50;;;;;;;;;;5054409;28;20456;-83
2023/10/21 03:51:05;;;;;;;42.90;22.57;;;;;;;;;;5052626;28;20451;-82
2023/10/21 03:53:32;;;;;;;67.10;23.90;;;;;;;;;;5054313;28;20459;-82
2023/10/21 03:55:59;;;;;;;46.77;23.37;;;;;;;;;;5053728;28;20992;-83
2023/10/21 03:58:27;;;;;;;80.33;26.27;;;;;;;;;;5054437;28;20455;-83
2023/10/21 04:00:54;;;;;;;63.80;24.97;;;;;;;;;;5053986;28;20472;-82
2023/10/21 04:03:20;;;;;;;65.20;25.53;;;;;;;;;;5054075;28;21050;-83
2023/10/21 04:05:47;;;;;;;64.97;23.90;;;;;;;;;;5052748;28;20460;-83
2023/10/21 04:08:13;;;;;;;70.20;25.37;;;;;;;;;;5052965;28;20494;-84
2023/10/21 04:10:39;;;;;;;51.57;21.67;;;;;;;;;;5053962;28;20534;-83
2023/10/21 04:13:06;;;;;;;58.73;24.87;;;;;;;;;;5054698;28;20436;-83
2023/10/21 04:15:34;;;;;;;64.27;26.83;;;;;;;;;;5053525;28;20470;-83
2023/10/21 04:18:01;;;;;;;71.73;24.47;;;;;;;;;;5056866;28;20440;-81
2023/10/21 04:20:27;;;;;;;62.23;23.57;;;;;;;;;;5058652;28;20444;-82
2023/10/21 04:22:53;;;;;;;48.03;22.27;;;;;;;;;;5057424;28;20444;-81
2023/10/21 04:25:21;;;;;;;71.30;24.90;;;;;;;;;;5057423;28;20487;-83
2023/10/21 04:27:47;;;;;;;53.30;21.67;;;;;;;;;;5058067;28;20443;-83
2023/10/21 04:30:14;;;;;;;48.67;22.87;;;;;;;;;;5056675;28;20444;-84
2023/10/21 04:32:41;;;;;;;59.57;25.77;;;;;;;;;;5058409;28;20444;-83
2023/10/21 04:35:09;;;;;;;58.17;27.07;;;;;;;;;;5056463;28;20456;-83
2023/10/21 04:37:35;;;;;;;57.10;24.30;;;;;;;;;;5057660;28;20452;-83
2023/10/21 04:40:02;;;;;;;52.87;24.50;;;;;;;;;;5058159;28;20784;-83
2023/10/21 04:42:28;;;;;;;56.03;24.40;;;;;;;;;;5057976;28;20475;-83
2023/10/21 04:44:55;;;;;;;60.33;23.80;;;;;;;;;;5057509;28;20870;-83
2023/10/21 04:47:21;;;;;;;65.80;25.70;;;;;;;;;;5056540;28;20472;-83
2023/10/21 04:49:49;;;;;;;57.70;24.77;;;;;;;;;;5057737;28;20448;-82
2023/10/21 04:52:16;;;;;;;52.17;24.10;;;;;;;;;;5056081;28;20467;-82
2023/10/21 04:54:42;;;;;;;49.90;22.83;;;;;;;;;;5056397;28;20459;-82
2023/10/21 04:57:09;;;;;;;48.40;22.70;;;;;;;;;;5057651;28;20593;-81
2023/10/21 04:59:35;;;;;;;71.53;26.77;;;;;;;;;;5057975;28;20446;-81
2023/10/21 05:02:03;;;;;;;46.10;22.83;;;;;;;;;;5054785;28;20843;-84
2023/10/21 05:04:30;;;;;;;63.97;24.67;;;;;;;;;;5057189;28;20484;-82
2023/10/21 05:06:58;;;;;;;56.20;22.90;;;;;;;;;;5056597;28;21066;-82
2023/10/21 05:09:24;;;;;;;65.47;25.17;;;;;;;;;;5057026;28;20444;-82
2023/10/21 05:11:51;;;;;;;45.10;21.63;;;;;;;;;;5056937;28;20467;-82
2023/10/21 05:14:18;;;;;;;53.07;24.10;;;;;;;;;;5056914;28;20463;-82
2023/10/21 05:16:44;;;;;;;45.77;23.20;;;;;;;;;;5057092;28;20463;-82
2023/10/21 05:19:11;;;;;;;77.17;25.30;;;;;;;;;;5057679;28;20515;-83
2023/10/21 05:21:37;;;;;;;50.20;24.23;;;;;;;;;;5056853;28;20463;-82
2023/10/21 05:24:06;;;;;;;58.90;25.63;;;;;;;;;;5057055;28;20486;-82
2023/10/21 05:26:32;;;;;;;80.57;27.33;;;;;;;;;;5056920;28;21020;-82
2023/10/21 05:28:59;;;;;;;67.93;26.00;;;;;;;;;;5055264;28;20444;-82
2023/10/21 05:31:25;;;;;;;51.80;23.53;;;;;;;;;;5056814;28;20467;-82
2023/10/21 05:33:51;;;;;;;83.43;26.80;;;;;;;;;;5057097;28;20462;-82
2023/10/21 05:36:18;;;;;;;57.23;22.33;;;;;;;;;;5056809;28;21012;-82
2023/10/21 05:38:44;;;;;;;63.00;22.97;;;;;;;;;;5057305;28;20443;-82
2023/10/21 05:41:12;;;;;;;59.30;24.10;;;;;;;;;;5056701;28;20464;-82
2023/10/21 05:43:39;;;;;;;54.70;23.23;;;;;;;;;;5057144;28;20456;-82
2023/10/21 05:46:05;;;;;;;53.20;23.43;;;;;;;;;;5056584;28;20479;-82
2023/10/21 05:48:31;;;;;;;66.63;25.33;;;;;;;;;;5056718;28;20829;-83
2023/10/21 05:51:00;;;;;;;72.33;27.33;;;;;;;;;;5055100;28;20878;-82
2023/10/21 05:53:26;;;;;;;43.30;21.50;;;;;;;;;;5056875;28;20436;-82
2023/10/21 05:55:54;;;;;;;53.00;24.90;;;;;;;;;;5056166;28;20479;-82
2023/10/21 05:58:22;;;;;;;69.80;25.17;;;;;;;;;;5056978;28;20436;-83
2023/10/21 06:00:49;;;;;;;55.40;24.70;;;;;;;;;;5056588;28;20468;-83
2023/10/21 06:03:16;;;;;;;49.37;23.90;;;;;;;;;;5055634;28;20876;-84
2023/10/21 06:05:41;;;;;;;62.87;25.20;;;;;;;;;;5055972;28;20843;-83
2023/10/21 06:08:08;;;;;;;60.63;26.10;;;;;;;;;;5056582;28;20435;-83
2023/10/21 06:10:34;;;;;;;61.77;24.67;;;;;;;;;;5056163;28;20225;-83
2023/10/21 06:13:00;;;;;;;49.77;22.13;;;;;;;;;;5056590;28;20505;-83
2023/10/21 06:15:29;;;;;;;64.53;25.03;;;;;;;;;;5055019;28;20460;-83
2023/10/21 06:17:56;;;;;;;57.10;25.07;;;;;;;;;;5056633;28;20472;-83
2023/10/21 06:20:22;;;;;;;55.07;23.73;;;;;;;;;;5055928;28;20518;-83
2023/10/21 06:22:48;;;;;;;68.67;28.27;;;;;;;;;;5056389;28;20812;-83
2023/10/21 06:25:16;;;;;;;65.03;25.03;;;;;;;;;;5054323;28;20529;-83
2023/10/21 06:27:42;;;;;;;60.43;24.60;;;;;;;;;;5056340;28;20440;-83
2023/10/21 06:30:10;;;;;;;58.40;23.33;;;;;;;;;;5055449;28;20965;-84
2023/10/21 06:32:38;;;;;;;53.00;23.23;;;;;;;;;;5054159;28;20456;-83
2023/10/21 06:35:05;;;;;;;58.17;24.70;;;;;;;;;;5056407;28;20452;-84
2023/10/21 06:37:32;;;;;;;50.57;26.03;;;;;;;;;;5054886;28;20479;-84
2023/10/21 06:39:58;;;;;;;51.53;25.33;;;;;;;;;;5055360;28;20444;-84
2023/10/21 06:42:25;;;;;;;54.57;23.97;;;;;;;;;;5055127;28;20475;-84
2023/10/21 06:44:51;;;;;;;47.60;24.33;;;;;;;;;;5055312;28;21001;-82
2023/10/21 06:47:18;;;;;;;55.27;25.53;;;;;;;;;;5053779;28;20881;-82
2023/10/21 06:49:46;;;;;;;52.67;23.83;;;;;;;;;;5055847;28;20416;-82
2023/10/21 06:52:12;;;;;;;45.80;23.80;;;;;;;;;;5053655;28;20464;-82
2023/10/21 06:54:39;;;;;;;55.90;23.83;;;;;;;;;;5054466;28;21048;-82
2023/10/21 06:57:05;;;;;;;47.47;25.00;;;;;;;;;;5053676;28;20471;-82
2023/10/21 06:59:32;;;;;;;54.60;24.60;;;;;;;;;;5054037;28;20502;-84
2023/10/21 07:01:59;;;;;;;43.60;24.67;;;;;;;;;;5054476;28;20474;-84
2023/10/21 07:04:25;;;;;;;48.60;25.37;;;;;;;;;;5054858;28;20506;-83
2023/10/21 07:06:53;;;;;;;51.87;22.47;;;;;;;;;;5054954;28;20480;-84
2023/10/21 07:09:20;;;;;;;47.03;24.47;;;;;;;;;;5055601;28;20440;-84
2023/10/21 07:11:46;;;;;;;52.90;23.27;;;;;;;;;;5054217;28;20495;-84
2023/10/21 07:14:13;;;;;;;46.00;23.90;;;;;;;;;;5055232;28;20456;-84
2023/10/21 07:16:40;;;;;;;44.93;23.23;;;;;;;;;;5054749;28;20468;-82
2023/10/21 07:19:07;;;;;;;45.47;22.93;;;;;;;;;;5054870;28;20436;-84
2023/10/21 07:21:34;;;;;;;39.63;23.13;;;;;;;;;;5053358;28;20501;-82
2023/10/21 07:24:02;;;;;;;48.47;23.57;;;;;;;;;;5053874;28;20460;-84
2023/10/21 07:26:29;;;;;;;55.50;23.87;;;;;;;;;;5055057;28;20502;-84
2023/10/21 07:28:55;;;;;;;45.93;24.10;;;;;;;;;;5055244;28;20864;-83
2023/10/21 07:31:21;;;;;;;48.50;23.20;;;;;;;;;;5054622;28;20475;-84
2023/10/21 07:33:51;;;;;;;53.33;25.53;;;;;;;;;;5055155;28;20460;-82
2023/10/21 07:36:17;;;;;;;42.40;23.87;;;;;;;;;;5053944;28;20551;-83
2023/10/21 07:38:43;;;;;;;49.20;23.23;;;;;;;;;;5054744;28;20448;-84
2023/10/21 07:41:12;;;;;;;45.50;23.77;;;;;;;;;;5052886;28;20460;-83
2023/10/21 07:43:38;;;;;;;46.93;22.83;;;;;;;;;;5054672;28;20460;-83
2023/10/21 07:46:05;;;;;;;44.40;23.93;;;;;;;;;;5054504;28;20475;-83
2023/10/21 07:48:32;;;;;;;58.67;23.23;;;;;;;;;;5054467;28;20455;-83
2023/10/21 07:50:58;;;;;;;45.50;24.23;;;;;;;;;;5053828;28;20476;-83
2023/10/21 07:53:24;;;;;;;42.30;23.30;;;;;;;;;;5055101;28;20824;-86
2023/10/21 07:55:51;;;;;;;50.47;25.93;;;;;;;;;;5053894;28;20468;-83
2023/10/21 07:58:19;;;;;;;53.57;23.47;;;;;;;;;;5053565;28;20435;-83
2023/10/21 08:00:46;;;;;;;41.87;22.97;;;;;;;;;;5053761;28;20826;-83
2023/10/21 08:03:12;;;;;;;46.43;24.57;;;;;;;;;;5053888;28;20481;-83
2023/10/21 08:05:39;;;;;;;42.80;24.17;;;;;;;;;;5054019;28;20471;-83
2023/10/21 08:08:05;;;;;;;48.90;24.77;;;;;;;;;;5054381;28;20446;-82
2023/10/21 08:10:31;;;;;;;47.03;24.97;;;;;;;;;;5053779;28;20467;-83
2023/10/21 08:12:58;;;;;;;43.17;22.90;;;;;;;;;;5053457;28;20498;-83
2023/10/21 08:15:27;;;;;;;49.50;24.10;;;;;;;;;;5053982;28;20463;-84
2023/10/21 08:17:53;;;;;;;44.67;23.97;;;;;;;;;;5053589;28;20502;-83
2023/10/21 08:20:19;;;;;;;40.97;23.43;;;;;;;;;;5054818;28;20451;-83
2023/10/21 08:22:46;;;;;;;49.37;23.80;;;;;;;;;;5053240;28;20494;-83
2023/10/21 08:25:13;;;;;;;44.27;23.53;;;;;;;;;;5053647;28;21004;-83
2023/10/21 08:27:40;;;;;;;41.43;23.77;;;;;;;;;;5054197;28;20431;-83
2023/10/21 08:30:09;;;;;;;43.13;24.10;;;;;;;;;;5053127;28;20448;-83
2023/10/21 08:32:37;;;;;;;36.50;22.30;;;;;;;;;;5053701;28;20872;-83
2023/10/21 08:35:03;;;;;;;43.53;22.70;;;;;;;;;;5052968;28;20460;-82
2023/10/21 08:37:30;;;;;;;41.47;23.87;;;;;;;;;;5053805;28;20480;-83
2023/10/21 08:39:56;;;;;;;39.93;22.30;;;;;;;;;;5053979;28;20436;-82
2023/10/21 08:42:25;;;;;;;40.50;21.33;;;;;;;;;;5053642;28;20475;-83
2023/10/21 08:44:53;;;;;;;42.63;21.87;;;;;;;;;;5054057;28;21110;-83
2023/10/21 08:47:21;;;;;;;40.40;22.70;;;;;;;;;;5053591;28;20467;-82
2023/10/21 08:49:49;;;;;;;41.63;22.20;;;;;;;;;;5054144;28;20439;-82
2023/10/21 08:52:17;;;;;;;46.23;22.73;;;;;;;;;;5053224;28;20541;-82
2023/10/21 08:54:43;;;;;;;37.00;22.37;;;;;;;;;;5053962;28;20514;-82
2023/10/21 08:57:10;;;;;;;37.47;22.63;;;;;;;;;;5052527;28;20471;-82
2023/10/21 08:59:36;;;;;;;31.10;19.37;;;;;;;;;;5054118;28;20444;-82
2023/10/21 09:02:03;;;;;;;34.10;21.50;;;;;;;;;;5052053;28;20473;-82
2023/10/21 09:04:31;;;;;;;37.10;22.33;;;;;;;;;;5056203;28;20470;-82
2023/10/21 09:06:59;;;;;;;34.17;21.63;;;;;;;;;;5057151;28;20487;-82
2023/10/21 09:09:27;;;;;;;36.00;21.40;;;;;;;;;;5055876;28;20454;-82
2023/10/21 09:12:03;;;;;;;38.70;20.70;;;;;;;;;;5057129;28;20590;-82
2023/10/21 09:14:31;;;;;;;34.87;19.63;;;;;;;;;;5057201;28;20455;-82
2023/10/21 09:16:57;;;;;;;31.63;21.60;;;;;;;;;;5055973;28;20546;-82
2023/10/21 09:19:26;;;;;;;35.10;20.47;;;;;;;;;;5055946;28;20954;-82
2023/10/21 09:21:52;;;;;;;34.53;21.60;;;;;;;;;;5056808;28;20449;-82
2023/10/21 09:24:23;;;;;;;31.70;20.60;;;;;;;;;;5057290;28;20467;-82
2023/10/21 09:26:49;;;;;;;32.57;20.87;;;;;;;;;;5056731;28;21005;-82
2023/10/21 09:29:18;;;;;;;31.20;20.77;;;;;;;;;;5055666;28;20938;-82
2023/10/21 09:31:49;;;;;;;34.07;21.23;;;;;;;;;;5055220;28;20453;-82
2023/10/21 09:34:24;;;;;;;37.90;22.97;;;;;;;;;;5056465;28;20456;-82
2023/10/21 09:36:51;;;;;;;33.33;20.00;;;;;;;;;;5056328;28;20566;-82
2023/10/21 09:39:17;;;;;;;29.00;20.30;;;;;;;;;;5057214;28;20418;-82
2023/10/21 09:41:46;;;;;;;27.27;18.37;;;;;;;;;;5055831;28;20443;-82
2023/10/21 09:44:13;;;;;;;30.40;20.50;;;;;;;;;;5055302;28;20466;-83
2023/10/21 09:46:41;;;;;;;32.50;21.03;;;;;;;;;;5038329;28;20468;-82
2023/10/21 09:49:08;;;;;;;32.03;19.90;;;;;;;;;;5056859;28;20466;-82
2023/10/21 09:51:37;;;;;;;30.77;20.40;;;;;;;;;;5056137;28;20465;-82
2023/10/21 09:54:08;;;;;;;24.20;18.10;;;;;;;;;;5055984;28;20434;-82
2023/10/21 09:56:35;;;;;;;24.57;18.37;;;;;;;;;;5055728;28;20474;-82
2023/10/21 09:59:04;;;;;;;29.10;19.73;;;;;;;;;;5055311;28;20444;-83
2023/10/21 10:01:31;;;;;;;25.97;18.50;;;;;;;;;;5054595;28;20552;-82
2023/10/21 10:03:57;;;;;;;27.93;18.47;;;;;;;;;;5055774;28;20476;-82
2023/10/21 10:06:25;;;;;;;25.07;17.83;;;;;;;;;;5054484;28;20479;-83
2023/10/21 10:08:51;;;;;;;25.97;17.60;;;;;;;;;;5056098;28;20421;-83
2023/10/21 10:11:18;;;;;;;29.00;17.57;;;;;;;;;;5054448;28;21018;-83
2023/10/21 10:13:48;;;;;;;24.20;16.87;;;;;;;;;;5055908;28;20431;-83
2023/10/21 10:16:23;;;;;;;26.67;18.70;;;;;;;;;;5055110;28;20834;-83
2023/10/21 10:18:50;;;;;;;27.30;18.20;;;;;;;;;;5054615;28;20447;-83
2023/10/21 10:21:16;;;;;;;23.63;17.70;;;;;;;;;;5055662;28;20450;-82
2023/10/21 10:23:48;;;;;;;24.30;17.50;;;;;;;;;;5055356;28;20442;-83
2023/10/21 10:26:15;;;;;;;26.50;17.93;;;;;;;;;;5055281;28;20546;-83
2023/10/21 10:28:42;;;;;;;22.63;17.17;;;;;;;;;;5055501;28;20506;-82
2023/10/21 10:31:09;;;;;;;24.80;17.80;;;;;;;;;;5055493;28;20451;-83
2023/10/21 10:33:38;;;;;;;28.13;18.60;;;;;;;;;;5055316;28;20902;-83
2023/10/21 10:36:06;;;;;;;23.20;17.97;;;;;;;;;;5055557;28;20447;-83
2023/10/21 10:38:34;;;;;;;25.37;16.83;;;;;;;;;;5055263;28;20418;-85
2023/10/21 10:41:05;;;;;;;23.33;17.20;;;;;;;;;;5053864;28;20496;-82
2023/10/21 10:43:32;;;;;;;23.53;16.27;;;;;;;;;;5055471;28;20467;-82
2023/10/21 10:46:00;;;;;;;24.10;16.27;;;;;;;;;;5054619;28;20450;-82
2023/10/21 10:48:29;;;;;;;23.53;16.40;;;;;;;;;;5054696;28;20426;-80
2023/10/21 10:51:00;;;;;;;26.07;18.27;;;;;;;;;;5054488;28;20555;-82
2023/10/21 10:53:27;;;;;;;25.33;18.87;;;;;;;;;;5055496;28;20445;-83
2023/10/21 10:55:54;;;;;;;21.33;17.90;;;;;;;;;;5053614;28;20487;-82
2023/10/21 10:58:21;;;;;;;23.57;17.90;;;;;;;;;;5055278;28;20447;-82
2023/10/21 11:00:47;;;;;;;23.87;16.70;;;;;;;;;;5054403;28;20450;-82
2023/10/21 11:03:32;;;;;;;22.00;16.43;;;;;;;;;;5053678;28;20998;-83
2023/10/21 11:06:00;;;;;;;28.87;16.90;;;;;;;;;;5053009;28;20476;-82
2023/10/21 11:08:29;;;;;;;19.07;15.13;;;;;;;;;;5055892;28;20436;-86
2023/10/21 11:11:02;;;;;;;19.13;16.10;;;;;;;;;;5056162;28;20479;-84
2023/10/21 11:13:28;;;;;;;21.17;16.43;;;;;;;;;;5056706;28;20430;-82
2023/10/21 11:15:55;;;;;;;18.87;15.30;;;;;;;;;;5056044;28;20543;-83
2023/10/21 11:18:21;;;;;;;17.30;14.00;;;;;;;;;;5057114;28;20415;-85
2023/10/21 11:20:48;;;;;;;16.40;14.10;;;;;;;;;;5056546;28;20479;-83
2023/10/21 11:23:18;;;;;;;17.33;14.77;;;;;;;;;;5055460;28;20440;-81
2023/10/21 11:25:46;;;;;;;17.40;14.37;;;;;;;;;;5056669;28;20519;-85
2023/10/21 11:28:14;;;;;;;16.67;14.13;;;;;;;;;;5055606;28;20447;-83
2023/10/21 11:30:41;;;;;;;20.30;16.73;;;;;;;;;;5057632;28;20448;-87
2023/10/21 11:33:09;;;;;;;24.53;15.70;;;;;;;;;;5059620;28;20438;-84
2023/10/21 11:35:36;;;;;;;17.67;14.63;;;;;;;;;;5058747;28;20859;-83
2023/10/21 11:38:03;;;;;;;18.43;14.30;;;;;;;;;;5060523;28;20411;-83
2023/10/21 11:40:32;;;;;;;18.70;15.40;;;;;;;;;;5057824;28;20535;-85
2023/10/21 11:42:59;;;;;;;18.40;15.03;;;;;;;;;;5058440;28;20475;-82
2023/10/21 11:45:28;;;;;;;20.80;15.47;;;;;;;;;;5056434;28;20996;-83
2023/10/21 11:47:54;;;;;;;15.10;13.50;;;;;;;;;;5057085;28;20807;-83
2023/10/21 11:50:21;;;;;;;17.07;14.63;;;;;;;;;;5056541;28;20451;-84
2023/10/21 11:52:48;;;;;;;17.97;14.23;;;;;;;;;;5057420;28;20415;-84
2023/10/21 11:55:38;;;;;;;15.43;13.83;;;;;;;;;;5056518;28;20849;-83
2023/10/21 12:15:03;;;;;;;14.77;13.20;;;;;;;;;;5022282;28;20483;-84
2023/10/21 12:18:12;;;;;;;14.77;13.27;;;;;;;;;;5057646;28;20434;-82
2023/10/21 12:21:13;;;;;;;13.83;12.43;;;;;;;;;;5056510;28;20460;-83
2023/10/21 12:34:52;;;;;;;10.57;9.40;;;;;;;;;;5057665;28;20431;-83
2023/10/21 12:37:30;;;;;;;7.73;6.73;;;;;;;;;;5056915;28;20442;-84
2023/10/21 12:40:26;;;;;;;5.77;5.33;;;;;;;;;;5061174;28;20430;-84
2023/10/21 12:42:47;;;;;;;6.17;5.53;;;;;;;;;;5059884;28;20448;-84
2023/10/21 12:45:18;;;;;;;3.47;3.13;;;;;;;;;;5060979;28;20472;-83
2023/10/21 12:47:48;;;;;;;2.50;2.40;;;;;;;;;;5081090;28;20996;-82
2023/10/21 12:50:14;;;;;;;3.33;2.30;;;;;;;;;;5080523;28;20450;-85
2023/10/21 12:52:42;;;;;;;2.80;2.23;;;;;;;;;;5081221;28;20801;-83
2023/10/21 12:55:11;;;;;;;2.90;2.70;;;;;;;;;;5079541;28;20506;-85
2023/10/21 12:57:37;;;;;;;3.20;3.00;;;;;;;;;;5080546;28;20462;-83
2023/10/21 13:00:05;;;;;;;3.27;2.73;;;;;;;;;;5079256;28;20794;-82
2023/10/21 13:02:35;;;;;;;3.27;2.97;;;;;;;;;;5079840;28;20472;-82
2023/10/21 13:05:04;;;;;;;4.60;3.17;;;;;;;;;;5079994;28;20459;-81
2023/10/21 13:07:31;;;;;;;3.93;3.53;;;;;;;;;;5079334;28;20491;-81
2023/10/21 13:09:57;;;;;;;5.33;4.83;;;;;;;;;;5075822;28;20463;-85
2023/10/21 13:12:23;;;;;;;4.17;3.90;;;;;;;;;;5079902;28;20447;-83
2023/10/21 13:14:50;;;;;;;3.87;3.57;;;;;;;;;;5061890;28;20470;-83
2023/10/21 13:17:17;;;;;;;12.10;9.20;;;;;;;;;;5080147;28;20953;-80
2023/10/21 13:19:43;;;;;;;4.93;4.00;;;;;;;;;;5078853;28;20946;-81
2023/10/21 13:22:11;;;;;;;5.13;4.63;;;;;;;;;;5080763;28;20439;-83
2023/10/21 13:24:37;;;;;;;17.80;14.13;;;;;;;;;;5080855;28;20481;-84
2023/10/21 13:27:05;;;;;;;4.70;4.20;;;;;;;;;;5079590;28;20482;-82
2023/10/21 13:29:32;;;;;;;5.07;4.67;;;;;;;;;;5080813;28;20506;-85
2023/10/21 13:32:00;;;;;;;6.60;6.00;;;;;;;;;;5081884;28;20449;-85
2023/10/21 13:34:27;;;;;;;5.70;3.87;;;;;;;;;;5080639;28;20525;-83
2023/10/21 13:36:53;;;;;;;3.50;3.30;;;;;;;;;;5081108;28;20447;-83
2023/10/21 13:39:22;;;;;;;5.13;4.53;;;;;;;;;;5077982;28;20936;-80
2023/10/21 13:41:48;;;;;;;5.50;4.60;;;;;;;;;;5077479;28;20471;-84
2023/10/21 13:44:15;;;;;;;5.37;4.77;;;;;;;;;;5079986;28;20455;-82
2023/10/21 13:46:41;;;;;;;4.87;4.33;;;;;;;;;;5079773;28;20936;-85
2023/10/21 13:49:13;;;;;;;4.20;2.70;;;;;;;;;;5079993;28;20429;-81
2023/10/21 13:51:40;;;;;;;3.37;2.60;;;;;;;;;;5079810;28;20467;-81
2023/10/21 13:54:09;;;;;;;3.60;3.30;;;;;;;;;;5080728;28;20459;-84
2023/10/21 13:56:37;;;;;;;2.87;2.67;;;;;;;;;;5079121;28;20483;-83
2023/10/21 13:59:06;;;;;;;6.97;6.37;;;;;;;;;;5081989;28;20804;-81
2023/10/21 14:01:32;;;;;;;3.90;3.60;;;;;;;;;;5078537;28;20477;-84
2023/10/21 14:03:58;;;;;;;4.20;3.80;;;;;;;;;;5079208;28;20463;-81
2023/10/21 14:06:25;;;;;;;5.53;3.80;;;;;;;;;;5077321;28;20475;-84
2023/10/21 14:08:51;;;;;;;4.47;3.50;;;;;;;;;;5078593;28;20439;-81
2023/10/21 14:11:18;;;;;;;9.70;4.13;;;;;;;;;;5078113;28;20471;-81
2023/10/21 14:13:47;;;;;;;3.40;2.93;;;;;;;;;;5078895;28;20451;-84
2023/10/21 14:16:13;;;;;;;5.60;5.07;;;;;;;;;;5078121;28;20487;-82
2023/10/21 14:18:42;;;;;;;4.83;4.00;;;;;;;;;;5077538;28;20442;-82
2023/10/21 14:21:09;;;;;;;3.87;2.90;;;;;;;;;;5079189;28;21077;-85
2023/10/21 14:23:36;;;;;;;2.77;2.57;;;;;;;;;;5079664;28;20463;-83
2023/10/21 14:26:02;;;;;;;3.80;3.30;;;;;;;;;;5077934;28;20478;-82
2023/10/21 14:28:32;;;;;;;7.43;3.07;;;;;;;;;;5079820;28;20443;-83
2023/10/21 14:31:00;;;;;;;4.17;2.77;;;;;;;;;;5078784;28;20475;-84
2023/10/21 14:33:27;;;;;;;2.10;1.90;;;;;;;;;;5079940;28;20442;-81
2023/10/21 14:35:54;;;;;;;2.10;2.00;;;;;;;;;;5079364;28;20479;-84
2023/10/21 14:38:21;;;;;;;2.50;2.30;;;;;;;;;;5079700;28;20454;-84
2023/10/21 14:40:48;;;;;;;6.33;3.60;;;;;;;;;;5077736;28;20826;-82
2023/10/21 14:43:15;;;;;;;7.10;3.23;;;;;;;;;;5079116;28;20439;-82
2023/10/21 14:45:42;;;;;;;3.20;2.80;;;;;;;;;;5078329;28;20467;-84
2023/10/21 14:48:11;;;;;;;3.03;2.83;;;;;;;;;;5077482;28;20483;-86
2023/10/21 14:50:38;;;;;;;5.53;2.70;;;;;;;;;;5078608;28;20470;-84